Time;durP1;ratioP1;P1;durP2;ratioP2;P2;SDS_P1;SDS_P2;PMS_P1;PMS_P2;Temp;Humidity;BMP_temperature;BMP_pressure;BME280_temperature;BME280_humidity;BME280_pressure;Samples;Min_cycle;Max_cycle;Signal;HPM_P1;HPM_P2
2022/02/11 00:09:06;;;;;;;21.23;18.50;;;;;;;4.63;82.89;100408.66;1677022;83;21038;-63
2022/02/11 00:11:39;;;;;;;26.33;22.30;;;;;;;4.66;82.88;100404.88;1674897;83;21658;-64
2022/02/11 00:14:08;;;;;;;30.00;23.87;;;;;;;4.64;82.81;100410.30;1679762;83;21089;-63
2022/02/11 00:16:38;;;;;;;31.23;24.93;;;;;;;4.57;83.09;100401.31;1691510;83;21062;-65
2022/02/11 00:19:07;;;;;;;30.17;24.57;;;;;;;4.49;83.41;100399.91;1685886;83;21627;-64
2022/02/11 00:21:35;;;;;;;29.40;23.07;;;;;;;4.47;83.67;100390.80;1617326;87;21141;-63
2022/02/11 00:24:02;;;;;;;25.68;22.73;;;;;;;4.50;84.08;100389.67;1618931;85;20995;-64
2022/02/11 00:26:33;;;;;;;30.23;23.23;;;;;;;4.50;84.46;100385.71;1614785;87;21093;-64
2022/02/11 00:34:37;;;;;;;28.97;22.53;;;;;;;4.35;85.15;100366.93;1658725;84;21090;-64
2022/02/11 00:37:08;;;;;;;26.23;22.17;;;;;;;4.34;85.45;100363.94;1637229;85;21053;-63
2022/02/11 00:53:23;;;;;;;21.15;17.20;;;;;;;4.45;85.83;100339.98;1658996;84;20999;-64
2022/02/11 01:03:44;;;;;;;24.83;17.90;;;;;;;4.60;85.32;100348.72;1674748;84;21040;-63
2022/02/11 01:05:54;;;;;;;26.73;20.90;;;;;;;4.54;85.36;100350.61;1670076;84;21070;-62
2022/02/11 01:08:20;;;;;;;;;;;;;;;4.49;85.20;100354.53;1675389;84;21109;-64
2022/02/11 01:10:47;;;;;;;26.57;20.80;;;;;;;4.45;85.20;100350.53;1672176;84;20424;-63
2022/02/11 01:13:13;;;;;;;28.05;21.57;;;;;;;4.46;85.15;100348.72;1681106;84;21073;-63
2022/02/11 01:15:49;;;;;;;23.20;19.90;;;;;;;4.48;85.03;100353.36;1672578;84;21079;-62
2022/02/11 01:18:12;;;;;;;28.10;22.03;;;;;;;4.50;84.99;100351.40;1676762;84;21114;-64
2022/02/11 01:21:00;;;;;;;24.83;21.50;;;;;;;4.48;84.92;100346.29;1676608;84;21054;-63
2022/02/11 01:26:06;;;;;;;30.20;22.60;;;;;;;4.40;85.08;100348.82;1681968;84;21507;-63
2022/02/11 02:27:35;;;;;;;11.50;10.30;;;;;;;5.01;77.71;100254.83;1687415;83;21034;-64
2022/02/11 02:31:00;;;;;;;11.80;10.60;;;;;;;5.06;77.11;100258.32;1685433;83;21006;-64
2022/02/11 02:50:12;;;;;;;12.37;10.40;;;;;;;5.14;75.29;100218.77;1655252;85;21068;-63
2022/02/11 02:59:17;;;;;;;11.40;10.00;;;;;;;5.07;75.00;100215.08;1673571;84;21034;-63
2022/02/11 03:01:51;;;;;;;10.37;9.27;;;;;;;5.19;74.70;100223.06;1626688;85;21080;-63
2022/02/11 04:55:22;;;;;;;10.33;9.33;;;;;;;5.13;71.29;100129.08;1652451;84;21046;-63
2022/02/11 05:00:22;;;;;;;9.67;8.70;;;;;;;5.26;70.89;100121.04;1648307;85;21017;-65
2022/02/11 05:02:50;;;;;;;10.10;9.03;;;;;;;5.29;70.69;100117.23;1658365;85;21070;-64
2022/02/11 05:05:17;;;;;;;9.47;8.47;;;;;;;5.29;70.69;100116.42;1659185;85;20966;-64
2022/02/11 05:07:43;;;;;;;11.03;9.40;;;;;;;5.27;70.64;100119.21;1658115;85;21053;-63
2022/02/11 05:10:13;;;;;;;13.43;10.63;;;;;;;5.24;70.61;100115.59;1657902;85;21054;-64
2022/02/11 05:12:42;;;;;;;12.37;10.47;;;;;;;5.22;70.60;100118.38;1654198;83;21096;-64
2022/02/11 05:15:11;;;;;;;11.00;9.23;;;;;;;5.20;70.69;100108.97;1649542;85;21019;-65
2022/02/11 05:17:43;;;;;;;9.87;8.70;;;;;;;5.28;70.61;100118.75;1642462;85;21033;-65
2022/02/11 05:20:10;;;;;;;10.30;9.27;;;;;;;5.40;70.36;100114.80;1649220;85;21558;-64
2022/02/11 05:22:36;;;;;;;13.23;9.47;;;;;;;5.42;70.15;100114.97;1662541;84;21081;-64
2022/02/11 05:25:03;;;;;;;11.75;10.53;;;;;;;5.39;70.13;100115.31;1650438;85;21081;-64
2022/02/11 05:27:30;;;;;;;14.57;10.93;;;;;;;5.37;70.35;100110.68;1656318;85;21106;-65
2022/02/11 05:29:57;;;;;;;11.97;9.63;;;;;;;5.35;70.37;100107.84;1651989;85;21013;-64
2022/02/11 05:32:26;;;;;;;11.97;10.77;;;;;;;5.33;70.27;100111.14;1652833;85;21609;-64
2022/02/11 05:34:53;;;;;;;10.87;9.77;;;;;;;5.31;70.54;100111.30;1650595;84;21537;-64
2022/02/11 05:37:20;;;;;;;12.35;11.05;;;;;;;5.31;70.33;100110.48;1657841;85;21045;-64
2022/02/11 05:39:46;;;;;;;8.75;7.97;;;;;;;5.34;70.20;100106.20;1647968;85;21025;-64
2022/02/11 05:42:12;;;;;;;10.88;9.75;;;;;;;5.44;69.61;100106.88;1646245;85;21090;-63
2022/02/11 05:44:38;;;;;;;11.30;10.20;;;;;;;5.46;69.36;100109.72;1638006;85;21322;-64
2022/02/11 05:47:05;;;;;;;11.65;9.45;;;;;;;5.42;69.34;100113.65;1641469;85;21010;-64
2022/02/11 05:49:31;;;;;;;10.90;9.30;;;;;;;5.41;69.31;100112.01;1624364;87;21438;-64
2022/02/11 05:51:57;;;;;;;12.20;10.38;;;;;;;5.40;69.44;100111.66;1620889;87;21567;-64
2022/02/11 05:54:25;;;;;;;11.87;10.63;;;;;;;5.39;69.31;100109.20;1612082;87;21036;-65
2022/02/11 05:56:53;;;;;;;13.23;10.47;;;;;;;5.36;69.14;100104.23;1626851;86;21094;-64
2022/02/11 05:59:19;;;;;;;10.27;9.17;;;;;;;5.35;69.42;100107.84;1625744;86;21193;-65
2022/02/11 06:01:45;;;;;;;10.68;9.48;;;;;;;5.41;69.27;100099.30;1644655;85;21113;-64
2022/02/11 06:04:11;;;;;;;12.58;8.55;;;;;;;5.55;68.98;100099.98;1661250;85;21026;-65
2022/02/11 06:06:37;;;;;;;12.37;10.35;;;;;;;5.63;68.76;100099.17;1661679;85;21138;-66
2022/02/11 06:09:03;;;;;;;12.23;10.25;;;;;;;5.64;68.51;100099.52;1661046;85;21106;-63
2022/02/11 06:11:30;;;;;;;;;;;;;;;5.65;68.40;100098.51;1655779;85;21052;-66
2022/02/11 06:13:57;;;;;;;12.63;10.88;;;;;;;5.66;68.24;100098.34;1668859;84;20478;-68
2022/02/11 06:16:23;;;;;;;11.65;10.43;;;;;;;5.59;68.52;100094.69;1668290;84;21069;-63
2022/02/11 06:18:51;;;;;;;13.38;9.90;;;;;;;5.62;68.52;100093.56;1669289;84;21034;-64
2022/02/11 06:21:17;;;;;;;11.57;10.27;;;;;;;5.60;68.52;100092.39;1666966;84;21036;-63
2022/02/11 06:23:45;;;;;;;10.27;9.23;;;;;;;5.62;68.52;100100.17;1660901;84;21630;-64
2022/02/11 06:26:11;;;;;;;10.23;9.23;;;;;;;5.62;68.19;100102.81;1668053;84;21352;-63
2022/02/11 06:28:37;;;;;;;12.00;9.83;;;;;;;5.71;68.17;100097.88;1668742;84;22155;-63
2022/02/11 06:31:05;;;;;;;12.00;9.27;;;;;;;5.88;67.69;100099.20;1661374;84;21103;-68
2022/02/11 06:33:33;;;;;;;11.60;10.47;;;;;;;5.90;67.38;100090.64;1669138;84;21490;-68
2022/02/11 06:35:59;;;;;;;10.03;9.05;;;;;;;5.92;67.63;100104.02;1675446;84;21080;-68
2022/02/11 06:38:26;;;;;;;17.20;10.80;;;;;;;5.92;67.60;100094.77;1678125;84;21038;-70
2022/02/11 06:40:52;;;;;;;12.70;10.65;;;;;;;5.93;67.44;100094.26;1678320;84;21171;-69
2022/02/11 06:43:18;;;;;;;12.82;10.82;;;;;;;5.94;67.46;100095.42;1679898;84;21118;-69
2022/02/11 06:45:44;;;;;;;13.78;10.05;;;;;;;5.98;67.68;100090.66;1672712;84;21060;-69
2022/02/11 06:48:11;;;;;;;12.70;11.18;;;;;;;6.01;67.61;100097.78;1670499;84;21109;-69
2022/02/11 06:50:37;;;;;;;13.00;11.20;;;;;;;6.06;67.70;100091.16;1669595;84;21149;-69
2022/02/11 06:53:04;;;;;;;15.05;10.70;;;;;;;6.12;67.59;100089.17;1649888;85;21044;-68
2022/02/11 06:55:30;;;;;;;;;;;;;;;6.19;67.30;100093.63;1643287;84;21350;-70
2022/02/11 06:57:57;;;;;;;11.57;9.33;;;;;;;6.36;66.88;100097.61;1599152;88;20132;-70
2022/02/11 07:00:23;;;;;;;11.10;9.93;;;;;;;6.47;66.95;100092.48;1607169;87;21044;-70
2022/02/11 07:02:50;;;;;;;12.25;11.05;;;;;;;6.58;66.71;100097.42;1644748;86;21077;-70
2022/02/11 07:05:17;;;;;;;12.13;10.47;;;;;;;6.63;66.60;100096.43;1644800;86;21037;-69
2022/02/11 07:07:44;;;;;;;13.67;11.70;;;;;;;6.68;66.41;100102.03;1642153;86;21075;-70
2022/02/11 07:10:11;;;;;;;15.08;11.70;;;;;;;6.75;66.22;100099.03;1647262;86;21004;-69
2022/02/11 07:12:37;;;;;;;11.83;10.47;;;;;;;6.82;65.98;100107.14;1667370;84;21607;-69
2022/02/11 07:15:05;;;;;;;13.38;11.10;;;;;;;6.87;65.86;100116.72;1671382;84;21395;-69
2022/02/11 07:17:33;;;;;;;11.73;10.60;;;;;;;6.89;65.47;100113.39;1677373;84;21633;-70
2022/02/11 07:20:01;;;;;;;13.47;11.67;;;;;;;6.90;65.45;100111.59;1670307;84;21550;-71
2022/02/11 07:22:34;;;;;;;12.07;10.87;;;;;;;6.89;65.46;100116.55;1673805;82;21101;-71
2022/02/11 07:24:55;;;;;;;12.77;11.27;;;;;;;6.87;65.21;100119.88;1669054;84;21071;-69
2022/02/11 07:27:21;;;;;;;17.73;13.35;;;;;;;6.47;65.41;100062.02;1675869;84;21001;-70
2022/02/11 07:29:47;;;;;;;16.93;13.88;;;;;;;6.79;65.28;100123.37;1676727;84;21191;-70
2022/02/11 07:32:13;;;;;;;14.87;12.55;;;;;;;6.76;65.65;100121.05;1679110;84;21083;-71
2022/02/11 07:34:40;;;;;;;15.72;12.47;;;;;;;6.77;66.17;100126.18;1675771;84;21059;-69
2022/02/11 07:37:06;;;;;;;12.43;10.37;;;;;;;6.85;65.87;100109.44;1667675;84;21134;-70
2022/02/11 07:39:33;;;;;;;13.15;10.58;;;;;;;6.98;65.55;100119.52;1669479;84;21493;-70
2022/02/11 07:41:59;;;;;;;22.52;17.87;;;;;;;7.04;65.07;100117.50;1675957;84;21028;-71
2022/02/11 07:44:25;;;;;;;23.67;17.02;;;;;;;7.01;65.28;100116.53;1670600;83;21640;-70
2022/02/11 07:46:51;;;;;;;15.60;13.72;;;;;;;6.98;65.37;100120.84;1662511;84;21020;-79
2022/02/11 07:49:17;;;;;;;18.27;13.30;;;;;;;6.96;65.18;100114.88;1648789;85;21530;-71
2022/02/11 07:51:44;;;;;;;13.80;12.37;;;;;;;6.96;65.56;100116.20;1651198;84;21049;-69
2022/02/11 07:54:12;;;;;;;15.53;12.67;;;;;;;7.00;65.43;100117.01;1666486;84;21057;-69
2022/02/11 07:56:39;;;;;;;;;;;;;;;7.02;65.23;100118.17;1673977;84;21002;-71
2022/02/11 07:59:07;;;;;;;19.03;13.87;;;;;;;7.00;65.26;100114.36;1674388;84;20474;-68
2022/02/11 08:01:33;;;;;;;13.18;11.80;;;;;;;6.92;65.77;100118.87;1670381;84;21077;-71
2022/02/11 08:04:00;;;;;;;13.68;12.28;;;;;;;6.93;65.74;100104.13;1657705;84;21065;-70
2022/02/11 08:06:26;;;;;;;13.68;11.73;;;;;;;6.90;65.67;100116.39;1663447;84;21471;-71
2022/02/11 08:08:52;;;;;;;17.25;12.78;;;;;;;6.82;65.96;100119.89;1669781;84;21039;-70
2022/02/11 08:11:18;;;;;;;15.43;11.20;;;;;;;6.81;66.18;100118.22;1672014;84;20983;-69
2022/02/11 08:13:44;;;;;;;13.48;11.35;;;;;;;6.88;66.33;100113.59;1677844;84;21057;-69
2022/02/11 08:16:10;;;;;;;15.43;12.80;;;;;;;6.90;66.30;100119.55;1655381;84;21095;-69
2022/02/11 08:18:36;;;;;;;17.23;12.47;;;;;;;6.85;66.47;100113.92;1669052;84;21119;-71
2022/02/11 08:21:03;;;;;;;16.07;13.00;;;;;;;6.77;67.29;100115.58;1595423;88;21067;-70
2022/02/11 08:23:29;;;;;;;16.03;14.07;;;;;;;6.76;67.51;100125.02;1658453;84;21082;-69
2022/02/11 08:25:56;;;;;;;16.12;14.43;;;;;;;6.75;68.00;100122.88;1660892;84;21473;-69
2022/02/11 08:28:22;;;;;;;18.40;13.68;;;;;;;6.74;68.14;100123.04;1658965;84;21037;-69
2022/02/11 08:30:50;;;;;;;18.53;14.53;;;;;;;6.67;68.56;100132.64;1678681;84;21027;-68
2022/02/11 08:33:24;;;;;;;15.57;13.17;;;;;;;6.67;68.59;100127.34;1665875;84;21044;-72
2022/02/11 08:35:52;;;;;;;16.73;13.77;;;;;;;6.73;68.58;100131.49;1671536;84;21158;-74
2022/02/11 08:38:20;;;;;;;16.77;13.20;;;;;;;6.73;68.67;100134.14;1638583;86;21519;-71
2022/02/11 08:40:49;;;;;;;15.97;12.10;;;;;;;6.68;68.97;100135.13;1634551;86;21031;-72
2022/02/11 08:43:18;;;;;;;15.63;13.87;;;;;;;6.58;69.33;100140.61;1647898;86;21002;-71
2022/02/11 08:45:45;;;;;;;15.47;13.87;;;;;;;6.54;69.55;100145.09;1623811;85;21171;-72
2022/02/11 08:48:13;;;;;;;15.17;13.60;;;;;;;6.51;69.73;100143.59;1670490;84;21006;-71
2022/02/11 08:50:42;;;;;;;18.53;14.37;;;;;;;6.54;69.89;100149.08;1661367;84;21126;-71
2022/02/11 08:53:10;;;;;;;14.67;13.17;;;;;;;6.60;69.71;100156.34;1676079;84;21024;-72
2022/02/11 08:55:37;;;;;;;14.53;12.77;;;;;;;6.72;69.39;100154.17;1671788;82;21056;-72
2022/02/11 08:58:07;;;;;;;16.93;14.13;;;;;;;6.79;69.26;100141.91;1643979;85;21020;-71
2022/02/11 09:00:34;;;;;;;14.90;13.37;;;;;;;6.77;69.19;100151.85;1643251;84;21031;-68
2022/02/11 09:03:00;;;;;;;19.17;14.20;;;;;;;6.75;69.41;100156.50;1665972;84;21023;-72
2022/02/11 09:05:27;;;;;;;16.93;14.00;;;;;;;6.67;69.53;100157.34;1666480;84;21014;-71
2022/02/11 09:07:56;;;;;;;17.27;15.43;;;;;;;6.60;69.82;100153.19;1677472;84;21157;-73
2022/02/11 09:10:26;;;;;;;16.83;14.90;;;;;;;6.60;69.89;100165.11;1675872;84;21062;-73
2022/02/11 09:12:54;;;;;;;17.03;13.90;;;;;;;6.63;69.95;100158.67;1657570;84;21004;-72
2022/02/11 09:15:21;;;;;;;16.60;14.27;;;;;;;6.70;69.96;100158.81;1654513;85;21067;-73
2022/02/11 09:17:49;;;;;;;18.20;15.23;;;;;;;6.83;69.66;100163.91;1651671;85;21127;-73
2022/02/11 09:20:17;;;;;;;19.13;17.07;;;;;;;6.88;69.47;100163.93;1653813;85;21067;-72
2022/02/11 09:22:43;;;;;;;18.20;14.70;;;;;;;6.86;69.73;100173.88;1646488;82;21076;-74
2022/02/11 09:25:11;;;;;;;18.17;15.60;;;;;;;6.81;70.08;100161.93;1648786;86;21038;-72
2022/02/11 09:27:43;;;;;;;21.83;19.10;;;;;;;6.80;70.33;100167.42;1636856;86;21207;-73
2022/02/11 09:30:07;;;;;;;20.03;16.87;;;;;;;6.82;70.40;100170.73;1633982;86;21148;-72
2022/02/11 09:32:34;;;;;;;21.70;17.97;;;;;;;6.79;70.58;100163.92;1633156;86;21053;-73
2022/02/11 09:35:01;;;;;;;20.35;14.45;;;;;;;6.74;70.90;100154.83;1608970;86;21576;-73
2022/02/11 09:37:29;;;;;;;20.10;17.07;;;;;;;6.77;71.12;100156.64;1656093;86;21096;-74
2022/02/11 09:39:55;;;;;;;21.37;17.77;;;;;;;6.80;71.02;100156.32;1627738;87;21071;-74
2022/02/11 09:42:21;;;;;;;22.33;18.67;;;;;;;6.82;71.14;100164.92;1606698;88;21230;-72
2022/02/11 09:44:48;;;;;;;21.48;18.27;;;;;;;6.85;71.20;100163.75;1660199;83;21053;-73
2022/02/11 09:47:14;;;;;;;;;;;;;;;6.89;71.30;100161.59;1675113;85;21042;-72
2022/02/11 09:49:41;;;;;;;26.57;19.07;;;;;;;6.92;71.14;100166.56;1647581;85;20541;-73
2022/02/11 09:52:07;;;;;;;20.15;16.52;;;;;;;6.91;71.32;100163.58;1653816;85;21265;-71
2022/02/11 09:54:33;;;;;;;20.75;16.57;;;;;;;6.95;71.16;100167.06;1655859;85;21041;-72
2022/02/11 09:57:00;;;;;;;21.87;18.37;;;;;;;7.08;70.94;100173.64;1617785;87;21006;-72
2022/02/11 09:59:26;;;;;;;21.95;16.35;;;;;;;7.12;70.66;100174.48;1620592;87;21126;-73
2022/02/11 10:01:53;;;;;;;23.18;17.32;;;;;;;7.11;70.96;100174.13;1642390;84;21014;-73
2022/02/11 10:04:25;;;;;;;21.77;18.20;;;;;;;7.11;70.93;100187.89;1637965;86;21133;-74
2022/02/11 10:06:52;;;;;;;23.77;20.27;;;;;;;7.10;70.95;100186.22;1623050;86;21081;-73
2022/02/11 10:09:24;;;;;;;22.67;19.07;;;;;;;7.09;71.02;100184.08;1646168;86;21073;-72
2022/02/11 10:11:51;;;;;;;23.17;18.43;;;;;;;7.07;71.43;100187.40;1651536;83;21512;-73
2022/02/11 10:14:36;;;;;;;23.93;17.33;;;;;;;7.12;71.07;100190.38;1629775;86;21065;-72
2022/02/11 10:17:10;;;;;;;24.17;18.80;;;;;;;7.16;70.88;100189.04;1648514;86;21053;-73
2022/02/11 10:19:45;;;;;;;22.13;17.47;;;;;;;7.15;70.94;100201.95;1653254;86;21024;-73
2022/02/11 10:22:25;;;;;;;24.80;18.67;;;;;;;7.13;71.42;100198.64;1643159;85;21380;-72
2022/02/11 10:24:55;;;;;;;22.37;18.57;;;;;;;7.09;71.54;100206.61;1633837;87;21487;-72
2022/02/11 10:27:32;;;;;;;22.03;17.97;;;;;;;7.05;71.64;100198.67;1611619;87;21066;-72
2022/02/11 10:30:03;;;;;;;21.82;18.17;;;;;;;7.05;71.78;100201.83;1655905;85;21072;-74
2022/02/11 10:32:46;;;;;;;23.53;17.57;;;;;;;7.06;72.13;100208.77;1669864;85;22224;-71
2022/02/11 10:35:18;;;;;;;19.70;16.03;;;;;;;7.14;71.90;100211.39;1658317;83;21133;-76
2022/02/11 10:38:09;;;;;;;22.30;16.97;;;;;;;7.24;71.70;100209.39;1657860;85;21109;-72
2022/02/11 10:40:40;;;;;;;21.90;16.30;;;;;;;7.29;71.55;100211.05;1655335;85;21044;-72
2022/02/11 10:43:25;;;;;;;22.10;17.90;;;;;;;7.27;71.57;100210.39;1658370;85;21019;-73
2022/02/11 10:45:51;;;;;;;22.83;18.97;;;;;;;7.30;71.72;100207.89;1648853;85;21032;-73
2022/02/11 10:48:21;;;;;;;20.35;18.07;;;;;;;7.32;71.67;100212.52;1667075;85;21062;-72
2022/02/11 10:50:55;;;;;;;24.50;18.73;;;;;;;7.33;72.00;100215.52;1646766;85;21056;-73
2022/02/11 10:53:28;;;;;;;19.70;16.77;;;;;;;7.36;71.73;100217.30;1654819;85;21111;-74
2022/02/11 10:55:56;;;;;;;22.50;17.33;;;;;;;7.39;71.38;100216.16;1656875;84;21047;-73
2022/02/11 10:58:32;;;;;;;21.80;18.13;;;;;;;7.43;71.29;100219.30;1658414;85;21068;-73
2022/02/11 11:01:01;;;;;;;21.90;17.47;;;;;;;7.40;71.33;100223.09;1677142;84;20982;-72
2022/02/11 11:03:33;;;;;;;18.13;15.87;;;;;;;7.33;71.60;100221.63;1635851;85;21041;-73
2022/02/11 11:06:10;;;;;;;21.00;15.83;;;;;;;7.34;71.69;100223.78;1673172;84;20989;-73
2022/02/11 11:08:40;;;;;;;19.90;17.07;;;;;;;7.35;71.41;100226.77;1675380;84;21026;-73
2022/02/11 11:11:10;;;;;;;18.57;16.60;;;;;;;7.36;71.70;100231.06;1676850;83;20967;-73
2022/02/11 11:13:38;;;;;;;20.23;16.10;;;;;;;7.39;71.37;100227.58;1678681;84;21021;-74
2022/02/11 11:16:08;;;;;;;20.40;16.93;;;;;;;7.45;71.26;100226.58;1679928;84;21638;-73
2022/02/11 11:18:38;;;;;;;21.60;16.43;;;;;;;7.43;71.03;100234.70;1684152;84;21028;-74
2022/02/11 11:21:10;;;;;;;19.53;17.43;;;;;;;7.34;71.41;100237.86;1685455;84;21032;-73
2022/02/11 11:23:42;;;;;;;22.27;18.63;;;;;;;7.30;71.66;100230.42;1663441;84;21084;-72
2022/02/11 11:26:10;;;;;;;20.80;17.47;;;;;;;7.28;71.66;100235.07;1659099;85;21054;-73
2022/02/11 11:28:50;;;;;;;21.53;18.00;;;;;;;7.29;71.64;100235.39;1653267;85;21074;-73
2022/02/11 11:31:27;;;;;;;17.30;15.17;;;;;;;7.30;71.77;100236.55;1651413;85;21096;-73
2022/02/11 11:34:20;;;;;;;19.10;13.93;;;;;;;7.40;71.37;100237.67;1650178;83;21124;-73
2022/02/11 11:36:53;;;;;;;14.60;13.10;;;;;;;7.50;70.63;100239.66;1645777;85;21518;-74
2022/02/11 11:39:20;;;;;;;16.37;13.63;;;;;;;7.48;70.55;100248.28;1615133;87;21559;-74
2022/02/11 11:42:08;;;;;;;15.90;14.13;;;;;;;7.45;70.68;100239.84;1586692;89;21543;-72
2022/02/11 11:44:52;;;;;;;17.27;14.63;;;;;;;7.40;70.72;100240.33;1588738;87;21071;-74
2022/02/11 11:47:33;;;;;;;16.83;15.03;;;;;;;7.34;70.64;100237.04;1649647;85;21635;-75
2022/02/11 11:50:00;;;;;;;18.67;14.27;;;;;;;7.30;70.71;100238.38;1640114;85;21050;-73
2022/02/11 11:52:46;;;;;;;17.40;14.27;;;;;;;7.26;71.00;100251.65;1648779;85;21021;-75
2022/02/11 11:55:22;;;;;;;18.47;13.47;;;;;;;7.29;70.94;100243.34;1644380;85;20983;-72
2022/02/11 11:57:51;;;;;;;15.00;13.40;;;;;;;7.33;70.61;100249.98;1655892;85;21169;-74
2022/02/11 12:00:36;;;;;;;18.07;14.33;;;;;;;7.28;70.60;100244.35;1658951;85;21570;-71
2022/02/11 12:03:03;;;;;;;17.93;13.33;;;;;;;7.19;70.79;100248.83;1661124;84;21066;-71
2022/02/11 12:05:53;;;;;;;20.27;15.23;;;;;;;7.15;71.06;100250.98;1660322;84;21122;-71
2022/02/11 12:08:16;;;;;;;19.13;15.77;;;;;;;7.14;71.37;100243.20;1667509;84;20964;-71
2022/02/11 12:10:46;;;;;;;17.20;15.37;;;;;;;7.15;71.31;100255.47;1669857;84;21038;-72
2022/02/11 12:13:15;;;;;;;17.80;14.93;;;;;;;7.18;71.26;100254.64;1664677;84;20991;-73
2022/02/11 12:15:43;;;;;;;14.97;13.13;;;;;;;7.27;71.16;100257.27;1677747;84;21063;-72
2022/02/11 12:18:09;;;;;;;15.50;13.77;;;;;;;7.41;71.04;100251.28;1681969;84;21024;-72
2022/02/11 12:20:38;;;;;;;;;;;;;;;7.48;70.82;100259.36;1686939;84;21083;-73
2022/02/11 12:28:38;;;;;;;15.43;13.87;;;;;;;7.38;69.95;100258.23;1675751;84;21067;-71
2022/02/11 12:31:07;;;;;;;14.67;13.17;;;;;;;7.34;70.22;100259.58;1686267;84;21088;-72
2022/02/11 12:33:34;;;;;;;14.17;12.50;;;;;;;7.36;69.98;100266.86;1685521;83;21501;-74
2022/02/11 12:36:11;;;;;;;17.90;13.63;;;;;;;7.37;69.73;100269.86;1672053;84;21583;-73
2022/02/11 12:38:38;;;;;;;13.95;12.33;;;;;;;7.38;69.58;100272.34;1684956;84;22054;-75
2022/02/11 12:41:04;;;;;;;13.27;11.57;;;;;;;7.45;69.23;100271.66;1686396;84;21052;-73
2022/02/11 12:43:31;;;;;;;13.28;11.93;;;;;;;7.47;69.08;100269.66;1684900;84;21051;-75
2022/02/11 12:45:57;;;;;;;16.65;12.73;;;;;;;7.42;69.15;100268.83;1643733;85;21004;-74
2022/02/11 12:48:33;;;;;;;12.68;11.48;;;;;;;7.43;69.13;100266.52;1671712;84;20993;-74
2022/02/11 12:50:59;;;;;;;19.03;12.70;;;;;;;7.41;69.08;100275.96;1676356;83;21000;-75
2022/02/11 12:53:27;;;;;;;14.63;12.85;;;;;;;7.41;69.15;100269.84;1688110;84;20997;-73
2022/02/11 12:55:54;;;;;;;15.80;13.37;;;;;;;7.41;69.22;100273.31;1690744;84;21556;-73
2022/02/11 12:58:21;;;;;;;15.07;13.53;;;;;;;7.47;69.18;100277.11;1685903;84;20985;-73
2022/02/11 13:00:50;;;;;;;15.93;13.43;;;;;;;7.51;69.05;100269.14;1686238;84;21041;-72
2022/02/11 13:03:18;;;;;;;13.27;11.87;;;;;;;7.54;68.44;100271.97;1673919;84;21064;-73
2022/02/11 13:05:50;;;;;;;14.87;11.50;;;;;;;7.59;68.32;100273.11;1679742;84;21124;-73
2022/02/11 13:08:23;;;;;;;11.63;10.20;;;;;;;7.66;67.98;100271.09;1685543;84;21561;-72
2022/02/11 13:11:02;;;;;;;14.23;10.37;;;;;;;7.70;67.75;100271.08;1688729;84;21569;-72
2022/02/11 13:13:30;;;;;;;10.60;9.23;;;;;;;7.64;66.96;100273.09;1684166;84;21028;-74
2022/02/11 13:15:58;;;;;;;10.17;9.03;;;;;;;7.56;66.73;100268.14;1683320;84;21580;-74
2022/02/11 13:18:27;;;;;;;9.17;8.13;;;;;;;7.52;66.63;100268.16;1684389;84;21635;-73
2022/02/11 13:21:01;;;;;;;10.47;6.40;;;;;;;7.51;66.10;100266.48;1686361;84;21068;-74
2022/02/11 13:23:28;;;;;;;7.63;5.73;;;;;;;7.51;65.37;100280.26;1685787;83;21072;-72
2022/02/11 13:25:56;;;;;;;5.70;5.20;;;;;;;7.51;64.98;100285.56;1686142;84;21060;-72
2022/02/11 13:28:24;;;;;;;5.57;4.33;;;;;;;7.50;64.31;100279.44;1683876;84;21056;-73
2022/02/11 13:30:58;;;;;;;5.00;4.60;;;;;;;7.47;64.25;100294.35;1685848;85;21528;-73
2022/02/11 13:33:34;;;;;;;5.20;4.63;;;;;;;7.44;63.84;100294.71;1679179;84;21529;-74
2022/02/11 13:36:05;;;;;;;4.97;4.15;;;;;;;7.39;63.66;100297.85;1685530;84;21593;-73
2022/02/11 13:38:36;;;;;;;5.23;4.10;;;;;;;7.37;63.71;100296.38;1683907;84;21009;-73
2022/02/11 13:41:09;;;;;;;5.33;4.07;;;;;;;7.33;63.98;100298.53;1676982;84;21017;-72
2022/02/11 13:43:58;;;;;;;4.83;4.03;;;;;;;7.29;63.58;100298.54;1685357;84;21462;-74
2022/02/11 13:46:34;;;;;;;6.03;3.90;;;;;;;7.23;63.73;100302.34;1657342;83;21086;-72
2022/02/11 13:49:10;;;;;;;4.20;3.90;;;;;;;7.14;64.01;100301.04;1659221;85;21033;-73
2022/02/11 13:51:39;;;;;;;4.97;4.03;;;;;;;7.08;64.34;100308.31;1652192;85;21100;-73
2022/02/11 13:54:15;;;;;;;7.03;3.73;;;;;;;7.04;64.42;100307.49;1646594;85;21038;-73
2022/02/11 13:56:48;;;;;;;3.83;3.27;;;;;;;7.02;64.43;100309.80;1676457;84;21036;-74
2022/02/11 13:59:23;;;;;;;3.67;3.37;;;;;;;7.09;64.28;100311.81;1686107;84;21121;-72
2022/02/11 14:01:48;;;;;;;4.90;3.80;;;;;;;7.05;64.05;100316.61;1674242;84;21056;-73
2022/02/11 14:04:18;;;;;;;2.33;2.17;;;;;;;6.91;64.18;100317.26;1694064;84;21253;-72
2022/02/11 14:06:56;;;;;;;3.60;2.87;;;;;;;6.77;63.89;100322.22;1669923;84;21044;-72
2022/02/11 14:09:38;;;;;;;3.17;2.67;;;;;;;6.71;64.02;100326.03;1685547;84;21588;-73
2022/02/11 14:12:20;;;;;;;3.73;2.03;;;;;;;6.63;64.41;100321.55;1687111;83;21039;-73
2022/02/11 14:14:56;;;;;;;2.00;1.90;;;;;;;6.54;63.47;100329.15;1685642;84;21567;-73
2022/02/11 14:17:23;;;;;;;1.73;1.63;;;;;;;6.46;63.92;100329.11;1676752;84;21091;-73
2022/02/11 14:19:50;;;;;;;1.60;1.50;;;;;;;6.34;63.95;100333.88;1682014;84;21080;-73
2022/02/11 14:22:17;;;;;;;2.50;2.30;;;;;;;6.26;63.84;100345.78;1682957;82;21516;-73
2022/02/11 14:24:44;;;;;;;2.47;2.20;;;;;;;6.18;63.82;100345.25;1681691;84;21001;-75
2022/02/11 14:27:10;;;;;;;1.72;1.57;;;;;;;6.13;64.24;100350.19;1671928;84;21036;-73
2022/02/11 14:29:37;;;;;;;4.30;3.60;;;;;;;6.10;64.27;100353.96;1682132;84;21468;-76
2022/02/11 14:32:55;;;;;;;1.67;1.47;;;;;;;6.12;64.44;100359.10;1791290;78;22967;-73
2022/02/11 14:35:21;;;;;;;2.50;2.30;;;;;;;6.09;64.31;100368.20;1718892;82;21098;-77
2022/02/11 14:37:48;;;;;;;2.87;2.65;;;;;;;6.07;64.39;100371.50;1722805;82;21096;-75
2022/02/11 14:40:14;;;;;;;5.13;2.27;;;;;;;6.08;64.46;100374.46;1705432;82;21002;-75
2022/02/11 14:42:40;;;;;;;2.40;2.22;;;;;;;6.10;64.30;100372.98;1708986;82;21066;-76
2022/02/11 14:45:09;;;;;;;3.85;2.92;;;;;;;6.16;64.27;100377.64;1717168;82;21568;-77
2022/02/11 14:47:35;;;;;;;3.70;3.40;;;;;;;6.17;64.11;100384.61;1678997;83;21027;-76
2022/02/11 14:50:02;;;;;;;4.92;3.08;;;;;;;6.11;64.41;100386.56;1688309;83;21008;-75
2022/02/11 14:52:29;;;;;;;2.20;2.00;;;;;;;6.09;64.44;100401.78;1694540;83;21045;-77
2022/02/11 14:54:58;;;;;;;2.50;2.30;;;;;;;6.04;64.04;100401.73;1691250;83;21125;-76
2022/02/11 14:57:24;;;;;;;3.07;2.77;;;;;;;6.00;64.20;100402.22;1689529;83;21072;-75
2022/02/11 14:59:51;;;;;;;3.20;2.40;;;;;;;5.95;64.01;100405.34;1681177;83;21028;-74
2022/02/11 15:02:17;;;;;;;2.33;1.85;;;;;;;5.89;64.21;100411.70;1686016;84;21592;-73
2022/02/11 15:04:44;;;;;;;3.50;3.17;;;;;;;5.83;64.52;100413.16;1682439;84;21107;-74
2022/02/11 15:07:12;;;;;;;5.58;3.12;;;;;;;5.79;64.68;100415.78;1672131;84;21006;-74
2022/02/11 15:09:39;;;;;;;9.73;2.80;;;;;;;5.76;64.77;100415.58;1680519;84;21147;-72
2022/02/11 15:12:10;;;;;;;2.58;2.17;;;;;;;5.74;65.00;100419.38;1690134;83;21042;-71
2022/02/11 15:14:37;;;;;;;4.20;3.23;;;;;;;5.73;64.92;100423.84;1688049;83;21072;-73
2022/02/11 15:17:03;;;;;;;2.77;2.37;;;;;;;5.73;64.89;100427.81;1693876;83;21545;-73
2022/02/11 15:19:32;;;;;;;4.93;3.10;;;;;;;5.82;64.70;100430.00;1688354;83;21723;-72
2022/02/11 15:21:58;;;;;;;;;;;;;;;5.86;64.61;100431.38;1701786;83;21013;-72
2022/02/11 15:24:26;;;;;;;6.47;3.57;;;;;;;5.82;64.41;100428.68;1705962;82;20134;-74
2022/02/11 15:26:52;;;;;;;4.30;3.10;;;;;;;5.72;64.61;100427.47;1723842;82;21074;-72
2022/02/11 15:29:20;;;;;;;3.60;2.20;;;;;;;5.71;64.70;100431.11;1702347;82;21077;-73
2022/02/11 15:31:47;;;;;;;3.77;2.73;;;;;;;5.65;64.58;100429.05;1716118;82;21595;-74
2022/02/11 15:34:13;;;;;;;3.50;2.90;;;;;;;5.59;64.64;100435.80;1683263;80;21060;-76